• Join FlightAware (Why Join?)
  • Login
  • US Flag 
02:17AM EDT


 

Airport Tracker/Info


-or-


 

Live Flight TrackerFlight Track Log ✈ DAL6115 ✈ 01-May-2013 ✈ KILM - KLGA

Flight Track Log - Related Links

Times and Time Zones

All times are in EDT time to prevent confusion due to time zone crossing. See the DAL6115 flight status page for this flight to view local times or setup timezone preferences in your user account.

Time Position Orientation Groundspeed Altitude Reporting Facility
EDT Latitude Longitude Course Direction KTS MPH feet Rate Location/Type
12:10PM 34.3633 -77.8564 North 221 254 4,500  Level Washington Center
12:11PM 34.6456 -77.8547 North  Level FlightAware Approximate
12:11PM 34.4344 -77.8483 North 235 270 7,000  Level Washington Center
12:12PM 34.7407 -77.8443 North  Level FlightAware Approximate
12:12PM 34.5117 -77.8428 North 254 292 9,600  Level Washington Center
12:13PM 34.8358 -77.8347 North  Level FlightAware Approximate
12:13PM 34.5972 -77.8350 North 282 325 10,000  Level Washington Center
12:14PM 34.9294 -77.8167 North  Level FlightAware Approximate
12:14PM 34.6914 -77.8250 North 315 362 11,100  Level Washington Center
12:15PM 34.7897 -77.8150 North 336 387 13,000 1,860 Climbing Washington Center
12:16PM 34.8775 -77.8047 North 349 402 14,900 1,860 Climbing Washington Center
12:17PM 34.9714 -77.7972 North 349 402 16,800 1,680 Climbing Washington Center
12:18PM 35.0656 -77.7869 North 349 402 18,300 1,680 Climbing Washington Center
12:19PM 35.1597 -77.7794 North 343 395 20,200 1,800 Climbing Washington Center
12:20PM 35.2558 -77.7694 North 343 395 22,000 1,740 Climbing Washington Center
12:21PM 35.3497 -77.7617 North 343 395 23,800 1,800 Climbing Washington Center
12:22PM 35.4458 -77.7542 North 343 395 25,700 1,860 Climbing Washington Center
12:23PM 35.5506 -77.7417 North 343 395 27,600 1,680 Climbing Washington Center
12:24PM 35.6444 -77.7364 North 343 395 29,100 1,380 Climbing Washington Center
12:25PM 35.7428 -77.7264 North 343 395 30,500 1,380 Climbing Washington Center
12:26PM 35.8411 -77.7136 North 348 400 31,900 1,380 Climbing Washington Center
12:27PM 35.9392 -77.7033 North 353 406 33,300 1,200 Climbing Washington Center
12:28PM 36.0439 -77.6883 North 358 412 34,400 780 Climbing Washington Center
12:29PM 36.1483 -77.6731 North 364 419 35,000 300 Climbing Washington Center
12:30PM 36.2536 -77.6242 21° North 381 438 35,000  Level Washington Center
12:31PM 36.3650 -77.5731 20° North 400 460 35,000  Level Washington Center
12:32PM 36.4575 -77.5289 21° North 408 470 35,000  Level Washington Center
12:33PM 36.5669 -77.4772 21° North 408 470 35,000  Level Washington Center
12:34PM 36.6742 -77.4281 20° North 408 470 35,000  Level Washington Center
12:35PM 36.7833 -77.3761 21° North 414 476 35,000  Level Washington Center
12:36PM 36.8947 -77.3217 21° North 419 482 35,000  Level Washington Center
12:37PM 36.9956 -77.2614 26° Northeast 414 476 35,000  Level Washington Center
12:38PM 37.0986 -77.1986 26° Northeast 403 464 35,000  Level Washington Center
12:39PM 37.2019 -77.1328 27° Northeast 403 464 35,000  Level Washington Center
12:40PM 37.3153 -77.0619 26° Northeast 410 472 35,000  Level Washington Center
12:41PM 37.4183 -76.9933 28° Northeast 410 472 35,000  Level Washington Center
12:42PM 37.5256 -76.9272 26° Northeast 415 478 35,000  Level Washington Center
12:43PM 37.6242 -76.8633 27° Northeast 410 472 35,000  Level Washington Center
12:44PM 37.7228 -76.7994 27° Northeast 404 465 35,000  Level Washington Center
12:45PM 37.8278 -76.7328 27° Northeast 404 465 35,000 -60 Level Washington Center
12:46PM 37.9203 -76.6736 27° Northeast 415 478 34,900 -780 Descending Washington Center
12:47PM 38.0167 -76.6039 30° Northeast 409 471 33,500 -1,380 Descending Washington Center
12:48PM 38.1153 -76.5314 30° Northeast 399 459 32,300 -1,140 Descending Washington Center
12:49PM 38.2117 -76.4558 32° Northeast 399 459 31,300 -900 Descending Washington Center
12:50PM 38.3208 -76.3750 30° Northeast 405 466 30,500 -960 Descending Washington Center
12:51PM 38.4025 -76.2939 38° Northeast 410 472 29,400 -1,080 Descending Washington Center
12:52PM 38.4989 -76.2044 36° Northeast 416 479 28,400 -1,080 Descending Washington Center
12:53PM 38.6058 -76.1044 36° Northeast 430 495 27,300 -780 Descending Washington Center
12:54PM 38.7000 -76.0200 35° Northeast 424 488 26,900 -240 Descending Washington Center
12:55PM 38.7919 -75.9325 37° Northeast 419 482 26,900  Level Washington Center
12:56PM 38.8839 -75.8475 36° Northeast 414 476 26,900  Level Washington Center
12:57PM 38.9778 -75.7597 36° Northeast 414 476 26,900 -300 Level Washington Center
12:58PM 39.0697 -75.6719 37° Northeast 414 476 26,400 -840 Descending Washington Center
12:59PM 39.1572 -75.5864 37° Northeast 403 464 25,200 -1,200 Descending Washington Center
01:00PM 39.2447 -75.5058 35° Northeast 392 451 24,100 -1,320 Descending Washington Center
01:01PM 39.3342 -75.4278 34° Northeast 386 444 22,700 -1,440 Descending Washington Center
01:02PM 39.4217 -75.3497 35° Northeast 381 438 21,300 -1,380 Descending Washington Center
01:03PM 39.5069 -75.2714 35° Northeast 376 433 20,000 -1,200 Descending Washington Center
01:04PM 39.5900 -75.1956 35° Northeast 376 433 18,900 -960 Descending Washington Center
01:05PM 39.6750 -75.1169 35° Northeast 376 433 18,200 -960 Descending Washington Center
01:06PM 39.7519 -75.0517 33° Northeast 371 427 17,000 -1,380 Descending Washington Center
01:07PM 39.8411 -74.9728 34° Northeast 362 417 15,500 -1,560 Descending Washington Center
01:08PM 39.9500 -74.8500 41° Northeast 340 391 13,200 -1,740 Descending New York TRACON
01:09PM 40.0167 -74.7667 44° Northeast 330 380 11,300 -1,440 Descending New York TRACON
01:10PM 40.0667 -74.6833 52° Northeast 328 377 10,500 -660 Descending New York TRACON
01:11PM 40.1333 -74.5833 49° Northeast 325 374 10,000 -240 Descending New York TRACON
01:12PM 40.2000 -74.5000 44° Northeast 325 374 10,000 -300 Level New York TRACON
01:13PM 40.2500 -74.4333 45° Northeast 265 305 9,400 -1,080 Descending New York TRACON
01:14PM 40.3000 -74.3667 45° Northeast 261 300 7,900 -1,200 Descending New York TRACON
01:15PM 40.3500 -74.3000 45° Northeast 251 289 7,000 -480 Descending New York TRACON
01:16PM 40.4000 -74.2333 45° Northeast 247 284 7,000 -60 Level New York TRACON
01:17PM 40.4500 -74.1667 45° Northeast 255 293 6,900 -900 Descending New York TRACON
01:18PM 40.5000 -74.1167 37° Northeast 245 282 5,300 -1,620 Descending New York TRACON
01:19PM 40.5500 -74.0667 37° Northeast 228 262 3,700 -1,140 Descending New York TRACON
01:20PM 40.6167 -74.0167 30° Northeast 216 249 3,000 -720 Descending New York TRACON